6MA9 weather

Cuttyhunk Harbor Seaplane Base
Cuttyhunk, Massachusetts, United States

Public forecast

Using degrees Fahrenheit for public forecast. Weather courtesy of forecast.io.

METAR (pilot weather report)

Closest report is Martha's Vineyard Airport, 14.2 nm (26.3 km) E. Retrieved 2019/09/17 04:53 UTC (51 minutes ago):

KMVY 170453Z AUTO 34005KT 10SM CLR 11/09 A3006 RMK AO2 SLP178 T01060089 402280083

TAF (pilot weather forecast)

Forecast is more than 12 hours old.

Closest forecast is Cape Cod Coast Guard Air Station, 23.1 nm (42.7 km) NE. Retrieved 2019/09/16 00:22 UTC (1 day ago):

TAF KFMH 162320Z 1700/1724 04003KT P6SM FEW040 FM170700 35004KT P6SM FEW040 FM171400 01008KT P6SM FEW250 FM171600 02010G17KT P6SM FEW050 FM172000 03010G21KT P6SM SCT050 FM172200 04009KT P6SM SCT050